Goodwater, Alabama
Current Conditions -  °F | °C
As of 1:35 AM on Thursday 23 Oct 2014 (Local Time) from KALX Reporting Station
Clear Clear  
Wind Chill: 44°   Ceiling: Unl
Heat Index: 44°   Visibility: 10mi
Dew Point: 41°   Wind: 0mph
Humidity: 91%   Direction: NA
Pressure: 30.11"   Gusts: NA
Location:  33.07°N, 86.05°W
Report Text: KALX 230635Z AUTO 00000KT 10SM CLR 07/05 A3011 RMK AO2 T00650051
Loading
Personal Weather Stations






























Interactive Weather Map
Tropical Storm Tracking
New forecast layout! Learn more

10-Day Weather Forecast

Advertisements
Track Severe Weather on mobile